• Join FlightAware (Why Join?)
  • Login
  • US Flag 
10:47AM EDT


 

Airport Tracker/Info


-or-


 

Live Flight TrackerFlight Track Log ✈ UAL5942 ✈ 06-Aug-2013 ✈ KORD - CYWG

Flight Track Log - Related Links

Times and Time Zones

All times are in EDT time to prevent confusion due to time zone crossing. See the UAL5942 flight status page for this flight to view local times or setup timezone preferences in your user account.

Time Position Orientation Groundspeed Altitude Reporting Facility
EDT Latitude Longitude Course Direction KTS MPH feet Rate Location/Type
09:48PM 42.0333 -87.9667 10° North 179 206 3,100  Level Chicago TRACON
09:50PM 42.2046 -87.8207 14° North  Level FlightAware Approximate
09:50PM 42.1261 -88.0247 335° Northwest 241 277 6,200  Level Chicago Center
09:51PM 42.2849 -87.7973 15° North  Level FlightAware Approximate
09:51PM 42.2028 -88.0239 360° North 273 314 8,300  Level Chicago Center
09:52PM 42.3646 -87.7675 15° North  Level FlightAware Approximate
09:52PM 42.2789 -88.0211 North 276 318 10,100  Level Chicago Center
09:53PM 42.4644 -87.7422 10° North  Level FlightAware Approximate
09:53PM 42.3728 -88.0269 357° North 288 331 12,400  Level Chicago Center
09:54PM 42.4531 -88.0394 353° North 289 333 14,100 1,800 Climbing Chicago Center
09:55PM 42.5347 -88.0425 358° North 291 335 16,200 1,200 Climbing Chicago Center
09:56PM 42.6161 -88.0486 357° North 294 338 16,700 540 Climbing Chicago Center
09:57PM 42.7061 -88.0500 359° North 317 365 17,400 600 Climbing Chicago Center
09:58PM 42.8050 -88.0589 356° North 351 404 18,000 900 Climbing Chicago Center
09:59PM 42.9250 -88.0675 357° North 368 423 19,300 1,140 Climbing Chicago Center
10:00PM 43.0272 -88.0756 357° North 369 425 20,400 960 Climbing Chicago Center
10:01PM 43.1322 -88.0836 357° North 376 433 21,300 1,020 Climbing Chicago Center
10:02PM 43.2356 -88.0919 357° North 374 430 22,500 1,020 Climbing Chicago Center
10:03PM 43.3406 -88.0994 357° North 379 436 23,500 1,020 Climbing Chicago Center
10:04PM 43.4417 -88.1233 350° North 377 434 24,600 1,140 Climbing Chicago Center
10:05PM 43.5306 -88.2197 322° Northwest 352 405 25,900 1,020 Climbing Chicago Center
10:06PM 43.6056 -88.3031 321° Northwest 351 404 26,800 1,020 Climbing Chicago Center
10:07PM 43.6797 -88.3864 321° Northwest 348 400 28,100 1,200 Climbing Chicago Center
10:08PM 43.7506 -88.4664 321° Northwest 335 386 29,300 1,080 Climbing Chicago Center
10:09PM 43.8189 -88.5461 320° Northwest 325 374 30,400 1,080 Climbing Chicago Center
10:10PM 43.8883 -88.6253 321° Northwest 322 371 31,500 1,320 Climbing Chicago Center
10:11PM 43.9669 -88.7153 321° Northwest 316 364 33,200 1,320 Climbing Chicago Center
10:12PM 44.0156 -88.8006 308° West 288 331 34,300 960 Climbing Chicago Center
10:13PM 44.0611 -88.8931 304° West 287 330 35,200 780 Climbing Chicago Center
10:14PM 44.1061 -88.9822 305° West 284 327 36,000 360 Climbing Chicago Center
10:15PM 44.1517 -89.0758 304° West 290 334 36,000  Level Chicago Center
10:16PM 44.2022 -89.1772 305° West 310 357 36,000  Level Chicago Center
10:17PM 44.2547 -89.2831 305° West 326 375 36,000  Level Chicago Center
10:19PM 44.2994 -89.4031 298° West 341 392 36,000  Level Chicago Center
10:20PM 44.3547 -89.5472 298° West 357 411 36,000  Level Chicago Center
10:21PM 44.4011 -89.6697 298° West 358 412 36,000  Level Chicago Center
10:22PM 44.4472 -89.7864 299° West 344 396 36,000  Level Chicago Center
10:23PM 44.4933 -89.9036 299° West 345 397 36,000  Level Chicago Center
10:24PM 44.5406 -90.0267 298° West 356 410 36,000  Level Chicago Center
10:25PM 44.5894 -90.1486 299° West 359 413 36,000  Level Chicago Center
10:26PM 44.6375 -90.2692 299° West 354 407 36,000  Level Chicago Center
10:27PM 44.6869 -90.3875 300° West 352 405 36,000  Level Chicago Center
10:28PM 44.7764 -90.5553 307° West 369 425 36,000  Level Minneapolis Center
10:29PM 44.8592 -90.6667 316° Northwest 375 432 36,000  Level Minneapolis Center
10:30PM 44.9314 -90.7642 316° Northwest 363 418 36,000  Level Minneapolis Center
10:31PM 45.0072 -90.8619 318° Northwest 368 423 36,000  Level Minneapolis Center
10:32PM 45.1072 -90.9458 329° Northwest 381 438 36,000  Level Minneapolis Center
10:33PM 45.2028 -91.0050 336° Northwest 396 456 36,000  Level Minneapolis Center
10:34PM 45.3389 -91.0450 348° North 425 489 36,000  Level Minneapolis Center
10:35PM 45.4578 -91.0606 355° North 428 493 36,000  Level Minneapolis Center
10:36PM 45.5744 -91.0906 350° North 427 491 36,000  Level Minneapolis Center
10:37PM 45.6789 -91.1636 334° Northwest 420 483 36,000  Level Minneapolis Center
10:38PM 45.7717 -91.2508 327° Northwest 407 468 36,000  Level Minneapolis Center
10:39PM 45.8600 -91.3425 324° Northwest 399 459 36,000  Level Minneapolis Center
10:40PM 45.9542 -91.4342 326° Northwest 403 464 36,000  Level Minneapolis Center
10:41PM 46.0458 -91.5325 323° Northwest 408 470 36,000  Level Minneapolis Center
10:43PM 46.1319 -91.6467 317° Northwest 409 471 36,000  Level Minneapolis Center
10:44PM 46.2094 -91.7503 317° Northwest 407 468 36,000  Level Minneapolis Center
10:45PM 46.3114 -91.8842 318° Northwest 412 474 36,000  Level Minneapolis Center
10:46PM 46.3928 -91.9931 317° Northwest 404 465 36,000 -60 Level Minneapolis Center
10:47PM 46.4744 -92.1056 317° Northwest 404 465 35,900  Descending Minneapolis Center
10:48PM 46.5561 -92.2150 317° Northwest 402 463 36,000  Climbing Minneapolis Center
10:49PM 46.6386 -92.3275 317° Northwest 405 466 36,000 -60 Level Minneapolis Center
10:50PM 46.7208 -92.4389 317° Northwest 406 467 35,900  Descending Minneapolis Center
10:51PM 46.8006 -92.5481 317° Northwest 399 459 36,000  Climbing Minneapolis Center
10:52PM 46.8828 -92.6608 317° Northwest 402 463 36,000  Level Minneapolis Center
10:53PM 46.9811 -92.7972 317° Northwest 406 467 36,000  Level Minneapolis Center
10:54PM 47.0636 -92.9106 317° Northwest 406 467 36,000  Level Minneapolis Center
10:55PM 47.1450 -93.0247 316° Northwest 404 465 36,000  Level Minneapolis Center
10:56PM 47.2261 -93.1383 316° Northwest 403 464 36,000  Level Minneapolis Center
10:57PM 47.2919 -93.2325 316° Northwest 404 465 36,000  Level Minneapolis Center
10:58PM 47.3925 -93.3744 316° Northwest 405 466 36,000  Level Minneapolis Center
10:59PM 47.4733 -93.4867 317° Northwest 398 458 36,000  Level Minneapolis Center
11:00PM 47.5539 -93.6022 316° Northwest 400 460 36,000  Level Minneapolis Center
11:01PM 47.6344 -93.7186 316° Northwest 402 463 36,000  Level Minneapolis Center
11:02PM 47.7147 -93.8344 316° Northwest 404 465 36,000  Level Minneapolis Center
11:03PM 47.7944 -93.9492 316° Northwest 401 461 36,000  Level Minneapolis Center
11:04PM 47.8900 -94.0864 316° Northwest 399 459 36,000  Level Minneapolis Center
11:05PM 47.9672 -94.2017 315° West 395 455 36,000  Level Minneapolis Center
11:06PM 48.0464 -94.3158 316° Northwest 396 456 36,000  Level Minneapolis Center
11:07PM 48.1233 -94.4317 315° West 395 455 36,000  Level Minneapolis Center
11:08PM 48.2022 -94.5461 316° Northwest 395 455 36,000  Level Minneapolis Center
11:09PM 48.2639 -94.6378 315° West 393 452 36,000  Level Minneapolis Center
11:10PM 48.3550 -94.7753 315° West 390 449 36,000  Level Minneapolis Center
11:11PM 48.4325 -94.8928 315° West 394 453 36,000  Level Minneapolis Center
11:12PM 48.5106 -95.0081 316° Northwest 394 453 36,000  Level Minneapolis Center
11:13PM 48.6033 -95.1469 315° West 393 452 36,000 -540 Level Minneapolis Center
11:14PM 48.6786 -95.2619 315° West 389 448 35,000 -1,320 Descending Minneapolis Center
11:15PM 48.7531 -95.3767 315° West 385 443 33,300 -1,980 Descending Minneapolis Center
11:16PM 48.8303 -95.4939 315° West 391 450 31,000 -2,280 Descending Minneapolis Center
11:17PM 48.8833 -95.5667 318° Northwest 380 437 29,100 -2,160 Descending Winnipeg Center
11:18PM 48.9333 -95.7167 297° West 380 437 27,000 -2,040 Descending Winnipeg Center
11:19PM 48.9833 -95.8667 297° West 390 449 25,100 -2,100 Descending Winnipeg Center
11:20PM 49.0500 -96.0000 307° West 390 449 22,900 -2,100 Descending Winnipeg Center
11:21PM 49.1167 -96.1167 311° West 380 437 20,900 -2,100 Descending Winnipeg Center
11:22PM 49.1833 -96.2500 307° West 370 426 18,800 -2,100 Descending Winnipeg Center
11:23PM 49.2667 -96.3500 322° Northwest 370 426 16,800 -2,100 Descending Winnipeg Center
11:24PM 49.3333 -96.4833 308° West 370 426 14,700 -2,040 Descending Winnipeg Center
11:25PM 49.3833 -96.6000 303° West 360 414 12,800 -1,800 Descending Winnipeg Center
11:26PM 49.4500 -96.6833 321° Northwest 310 357 11,100 -1,680 Descending Winnipeg Center
11:27PM 49.5000 -96.7833 308° West 270 311 9,500 -1,680 Descending Winnipeg Center
11:28PM 49.5333 -96.8667 302° West 260 299 7,800 -1,800 Descending Winnipeg Center
11:29PM 49.5833 -96.9667 308° West 250 288 5,900 -1,560 Descending Winnipeg Center
11:30PM 49.6167 -97.0500 302° West 230 265 4,700 -1,140 Descending Winnipeg Center
11:31PM 49.6667 -97.1000 327° Northwest 210 242 3,700 -840 Descending Winnipeg Center
11:32PM 49.7000 -97.1667 308° West 200 230 3,100 -360 Descending Winnipeg Center
11:33PM 49.7333 -97.2167 316° Northwest 200 230 3,000 -240 Descending Winnipeg Center
11:34PM 49.7833 -97.2500 337° Northwest 190 219 2,700 -600 Descending Winnipeg Center
11:35PM 49.8333 -97.2500 360° North 140 161 1,900 -780 Descending Winnipeg Center
11:36PM 49.8667 -97.2333 18° North 120 138 1,200 -600 Descending Winnipeg Center
11:37PM 49.9000 -97.2333 360° North 130 150 800 -420 Descending Winnipeg Center